sensor_id;sensor_type;location;lat;lon;timestamp;P1;durP1;ratioP1;P2;durP2;ratioP2
6850;SDS011;3464;42.728;23.296;2023-09-19T00:00:38;14.43;;;6.00;;
6850;SDS011;3464;42.728;23.296;2023-09-19T00:03:05;13.60;;;5.60;;
6850;SDS011;3464;42.728;23.296;2023-09-19T00:05:33;14.80;;;5.70;;
6850;SDS011;3464;42.728;23.296;2023-09-19T00:08:00;12.97;;;5.83;;
6850;SDS011;3464;42.728;23.296;2023-09-19T00:10:27;14.13;;;5.67;;
6850;SDS011;3464;42.728;23.296;2023-09-19T00:12:53;14.30;;;5.63;;
6850;SDS011;3464;42.728;23.296;2023-09-19T00:15:22;15.87;;;6.57;;
6850;SDS011;3464;42.728;23.296;2023-09-19T00:17:49;15.50;;;5.80;;
6850;SDS011;3464;42.728;23.296;2023-09-19T00:20:15;13.43;;;6.10;;
6850;SDS011;3464;42.728;23.296;2023-09-19T00:22:42;16.03;;;7.07;;
6850;SDS011;3464;42.728;23.296;2023-09-19T00:25:08;14.70;;;5.30;;
6850;SDS011;3464;42.728;23.296;2023-09-19T00:27:35;14.50;;;6.30;;
6850;SDS011;3464;42.728;23.296;2023-09-19T00:30:02;14.67;;;6.30;;
6850;SDS011;3464;42.728;23.296;2023-09-19T00:32:28;17.70;;;6.27;;
6850;SDS011;3464;42.728;23.296;2023-09-19T00:34:55;13.07;;;6.23;;
6850;SDS011;3464;42.728;23.296;2023-09-19T00:37:21;16.13;;;6.27;;
6850;SDS011;3464;42.728;23.296;2023-09-19T00:39:48;13.30;;;5.53;;
6850;SDS011;3464;42.728;23.296;2023-09-19T00:42:21;16.93;;;6.50;;
6850;SDS011;3464;42.728;23.296;2023-09-19T00:44:47;14.63;;;6.50;;
6850;SDS011;3464;42.728;23.296;2023-09-19T00:47:14;14.70;;;5.67;;
6850;SDS011;3464;42.728;23.296;2023-09-19T00:49:40;14.60;;;6.07;;
6850;SDS011;3464;42.728;23.296;2023-09-19T00:52:07;14.80;;;6.27;;
6850;SDS011;3464;42.728;23.296;2023-09-19T00:54:34;14.47;;;6.90;;
6850;SDS011;3464;42.728;23.296;2023-09-19T00:57:01;14.73;;;6.93;;
6850;SDS011;3464;42.728;23.296;2023-09-19T00:59:28;17.57;;;7.13;;
6850;SDS011;3464;42.728;23.296;2023-09-19T01:01:54;16.23;;;6.50;;
6850;SDS011;3464;42.728;23.296;2023-09-19T01:04:21;16.17;;;6.70;;
6850;SDS011;3464;42.728;23.296;2023-09-19T01:06:49;13.33;;;5.80;;
6850;SDS011;3464;42.728;23.296;2023-09-19T01:09:16;18.00;;;6.57;;
6850;SDS011;3464;42.728;23.296;2023-09-19T01:11:43;15.60;;;6.37;;
6850;SDS011;3464;42.728;23.296;2023-09-19T01:14:15;13.53;;;6.40;;
6850;SDS011;3464;42.728;23.296;2023-09-19T01:16:46;15.90;;;6.20;;
6850;SDS011;3464;42.728;23.296;2023-09-19T01:21:54;13.03;;;6.80;;
6850;SDS011;3464;42.728;23.296;2023-09-19T01:24:47;14.90;;;6.93;;
6850;SDS011;3464;42.728;23.296;2023-09-19T01:32:36;18.47;;;7.13;;
6850;SDS011;3464;42.728;23.296;2023-09-19T01:35:03;14.30;;;7.00;;
6850;SDS011;3464;42.728;23.296;2023-09-19T01:37:29;15.20;;;6.27;;
6850;SDS011;3464;42.728;23.296;2023-09-19T01:40:00;18.00;;;7.00;;
6850;SDS011;3464;42.728;23.296;2023-09-19T01:42:35;18.30;;;7.80;;
6850;SDS011;3464;42.728;23.296;2023-09-19T01:45:08;17.60;;;6.23;;
6850;SDS011;3464;42.728;23.296;2023-09-19T01:47:46;15.07;;;7.10;;
6850;SDS011;3464;42.728;23.296;2023-09-19T01:50:16;14.50;;;7.27;;
6850;SDS011;3464;42.728;23.296;2023-09-19T01:52:57;16.20;;;6.93;;
6850;SDS011;3464;42.728;23.296;2023-09-19T01:55:25;15.47;;;6.80;;
6850;SDS011;3464;42.728;23.296;2023-09-19T01:57:58;14.80;;;7.27;;
6850;SDS011;3464;42.728;23.296;2023-09-19T02:00:36;16.83;;;6.90;;
6850;SDS011;3464;42.728;23.296;2023-09-19T02:03:02;18.00;;;7.33;;
6850;SDS011;3464;42.728;23.296;2023-09-19T02:05:29;15.57;;;7.97;;
6850;SDS011;3464;42.728;23.296;2023-09-19T02:07:55;19.80;;;8.33;;
6850;SDS011;3464;42.728;23.296;2023-09-19T02:10:22;17.70;;;8.93;;
6850;SDS011;3464;42.728;23.296;2023-09-19T02:12:49;17.40;;;8.33;;
6850;SDS011;3464;42.728;23.296;2023-09-19T02:15:15;18.23;;;8.53;;
6850;SDS011;3464;42.728;23.296;2023-09-19T02:17:43;21.63;;;9.60;;
6850;SDS011;3464;42.728;23.296;2023-09-19T02:20:10;23.90;;;9.80;;
6850;SDS011;3464;42.728;23.296;2023-09-19T02:22:37;21.90;;;10.07;;
6850;SDS011;3464;42.728;23.296;2023-09-19T02:25:05;23.10;;;9.17;;
6850;SDS011;3464;42.728;23.296;2023-09-19T02:27:31;15.57;;;7.90;;
6850;SDS011;3464;42.728;23.296;2023-09-19T02:29:58;15.53;;;7.80;;
6850;SDS011;3464;42.728;23.296;2023-09-19T02:32:24;16.90;;;8.17;;
6850;SDS011;3464;42.728;23.296;2023-09-19T02:34:51;16.23;;;8.23;;
6850;SDS011;3464;42.728;23.296;2023-09-19T02:37:18;19.57;;;8.43;;
6850;SDS011;3464;42.728;23.296;2023-09-19T02:39:45;16.30;;;7.80;;
6850;SDS011;3464;42.728;23.296;2023-09-19T02:42:11;16.57;;;8.40;;
6850;SDS011;3464;42.728;23.296;2023-09-19T02:44:38;14.73;;;8.20;;
6850;SDS011;3464;42.728;23.296;2023-09-19T02:47:04;15.53;;;8.40;;
6850;SDS011;3464;42.728;23.296;2023-09-19T02:49:31;14.93;;;8.40;;
6850;SDS011;3464;42.728;23.296;2023-09-19T02:51:58;19.50;;;7.80;;
6850;SDS011;3464;42.728;23.296;2023-09-19T02:54:26;16.43;;;8.07;;
6850;SDS011;3464;42.728;23.296;2023-09-19T02:56:53;17.97;;;8.33;;
6850;SDS011;3464;42.728;23.296;2023-09-19T02:59:20;17.73;;;8.20;;
6850;SDS011;3464;42.728;23.296;2023-09-19T03:01:47;18.20;;;8.10;;
6850;SDS011;3464;42.728;23.296;2023-09-19T03:04:14;16.50;;;8.30;;
6850;SDS011;3464;42.728;23.296;2023-09-19T03:06:40;18.87;;;7.73;;
6850;SDS011;3464;42.728;23.296;2023-09-19T03:09:07;18.13;;;8.80;;
6850;SDS011;3464;42.728;23.296;2023-09-19T03:11:33;15.50;;;8.00;;
6850;SDS011;3464;42.728;23.296;2023-09-19T03:14:00;19.70;;;9.23;;
6850;SDS011;3464;42.728;23.296;2023-09-19T03:16:33;20.93;;;9.30;;
6850;SDS011;3464;42.728;23.296;2023-09-19T03:18:59;18.80;;;8.83;;
6850;SDS011;3464;42.728;23.296;2023-09-19T03:21:26;15.20;;;7.83;;
6850;SDS011;3464;42.728;23.296;2023-09-19T03:23:52;22.20;;;8.60;;
6850;SDS011;3464;42.728;23.296;2023-09-19T03:26:19;21.10;;;9.17;;
6850;SDS011;3464;42.728;23.296;2023-09-19T03:28:46;17.60;;;9.10;;
6850;SDS011;3464;42.728;23.296;2023-09-19T03:31:12;20.03;;;9.33;;
6850;SDS011;3464;42.728;23.296;2023-09-19T03:33:39;17.03;;;8.90;;
6850;SDS011;3464;42.728;23.296;2023-09-19T03:36:05;20.27;;;9.10;;
6850;SDS011;3464;42.728;23.296;2023-09-19T03:38:33;17.30;;;8.70;;
6850;SDS011;3464;42.728;23.296;2023-09-19T03:41:02;19.80;;;8.30;;
6850;SDS011;3464;42.728;23.296;2023-09-19T03:43:28;16.50;;;7.80;;
6850;SDS011;3464;42.728;23.296;2023-09-19T03:45:54;15.53;;;8.40;;
6850;SDS011;3464;42.728;23.296;2023-09-19T03:48:21;18.57;;;8.17;;
6850;SDS011;3464;42.728;23.296;2023-09-19T03:50:47;15.80;;;8.20;;
6850;SDS011;3464;42.728;23.296;2023-09-19T03:53:14;18.50;;;8.10;;
6850;SDS011;3464;42.728;23.296;2023-09-19T03:55:41;18.23;;;7.60;;
6850;SDS011;3464;42.728;23.296;2023-09-19T03:58:09;25.03;;;9.00;;
6850;SDS011;3464;42.728;23.296;2023-09-19T04:00:35;18.90;;;8.90;;
6850;SDS011;3464;42.728;23.296;2023-09-19T04:03:02;15.67;;;8.33;;
6850;SDS011;3464;42.728;23.296;2023-09-19T04:05:28;16.93;;;8.07;;
6850;SDS011;3464;42.728;23.296;2023-09-19T04:07:55;20.40;;;8.50;;
6850;SDS011;3464;42.728;23.296;2023-09-19T04:10:21;20.40;;;8.53;;
6850;SDS011;3464;42.728;23.296;2023-09-19T04:12:50;16.67;;;9.40;;
6850;SDS011;3464;42.728;23.296;2023-09-19T04:15:18;18.20;;;8.97;;
6850;SDS011;3464;42.728;23.296;2023-09-19T04:20:50;32.43;;;12.27;;
6850;SDS011;3464;42.728;23.296;2023-09-19T04:23:16;18.83;;;9.20;;
6850;SDS011;3464;42.728;23.296;2023-09-19T04:25:43;20.10;;;10.23;;
6850;SDS011;3464;42.728;23.296;2023-09-19T04:28:10;73.90;;;15.40;;
6850;SDS011;3464;42.728;23.296;2023-09-19T04:30:37;96.10;;;13.93;;
6850;SDS011;3464;42.728;23.296;2023-09-19T04:33:03;73.33;;;18.00;;
6850;SDS011;3464;42.728;23.296;2023-09-19T04:35:30;20.10;;;9.63;;
6850;SDS011;3464;42.728;23.296;2023-09-19T04:37:56;18.47;;;9.07;;
6850;SDS011;3464;42.728;23.296;2023-09-19T04:40:23;22.17;;;8.57;;
6850;SDS011;3464;42.728;23.296;2023-09-19T04:42:53;21.87;;;8.90;;
6850;SDS011;3464;42.728;23.296;2023-09-19T04:47:53;20.43;;;8.47;;
6850;SDS011;3464;42.728;23.296;2023-09-19T04:50:19;19.70;;;8.67;;
6850;SDS011;3464;42.728;23.296;2023-09-19T04:52:46;17.50;;;8.50;;
6850;SDS011;3464;42.728;23.296;2023-09-19T04:55:13;18.90;;;8.10;;
6850;SDS011;3464;42.728;23.296;2023-09-19T04:57:43;17.17;;;7.80;;
6850;SDS011;3464;42.728;23.296;2023-09-19T05:00:11;17.80;;;7.83;;
6850;SDS011;3464;42.728;23.296;2023-09-19T05:02:40;20.17;;;7.20;;
6850;SDS011;3464;42.728;23.296;2023-09-19T05:05:08;16.43;;;7.00;;
6850;SDS011;3464;42.728;23.296;2023-09-19T05:07:34;21.60;;;7.93;;
6850;SDS011;3464;42.728;23.296;2023-09-19T05:10:01;16.40;;;7.63;;
6850;SDS011;3464;42.728;23.296;2023-09-19T05:12:28;17.20;;;6.60;;
6850;SDS011;3464;42.728;23.296;2023-09-19T05:14:54;17.77;;;6.97;;
6850;SDS011;3464;42.728;23.296;2023-09-19T05:17:21;19.20;;;6.90;;
6850;SDS011;3464;42.728;23.296;2023-09-19T05:19:47;20.60;;;6.50;;
6850;SDS011;3464;42.728;23.296;2023-09-19T05:22:14;18.70;;;6.87;;
6850;SDS011;3464;42.728;23.296;2023-09-19T05:24:40;15.50;;;6.03;;
6850;SDS011;3464;42.728;23.296;2023-09-19T05:27:07;17.07;;;5.67;;
6850;SDS011;3464;42.728;23.296;2023-09-19T05:29:33;14.60;;;5.13;;
6850;SDS011;3464;42.728;23.296;2023-09-19T05:32:00;14.70;;;5.40;;
6850;SDS011;3464;42.728;23.296;2023-09-19T05:34:26;16.13;;;6.13;;
6850;SDS011;3464;42.728;23.296;2023-09-19T05:36:53;15.47;;;5.20;;
6850;SDS011;3464;42.728;23.296;2023-09-19T05:39:19;15.73;;;5.53;;
6850;SDS011;3464;42.728;23.296;2023-09-19T05:41:46;13.67;;;5.60;;
6850;SDS011;3464;42.728;23.296;2023-09-19T05:44:13;17.00;;;5.20;;
6850;SDS011;3464;42.728;23.296;2023-09-19T05:46:39;13.90;;;5.90;;
6850;SDS011;3464;42.728;23.296;2023-09-19T05:49:09;15.63;;;5.33;;
6850;SDS011;3464;42.728;23.296;2023-09-19T05:51:38;19.00;;;5.37;;
6850;SDS011;3464;42.728;23.296;2023-09-19T05:54:05;13.20;;;5.37;;
6850;SDS011;3464;42.728;23.296;2023-09-19T05:56:32;15.00;;;4.80;;
6850;SDS011;3464;42.728;23.296;2023-09-19T05:58:59;14.70;;;4.90;;
6850;SDS011;3464;42.728;23.296;2023-09-19T06:01:27;14.00;;;4.67;;
6850;SDS011;3464;42.728;23.296;2023-09-19T06:03:53;30.43;;;5.50;;
6850;SDS011;3464;42.728;23.296;2023-09-19T06:06:21;16.73;;;4.90;;
6850;SDS011;3464;42.728;23.296;2023-09-19T06:08:48;14.30;;;4.43;;
6850;SDS011;3464;42.728;23.296;2023-09-19T06:11:15;17.50;;;5.10;;
6850;SDS011;3464;42.728;23.296;2023-09-19T06:13:41;14.63;;;5.47;;
6850;SDS011;3464;42.728;23.296;2023-09-19T06:16:08;16.77;;;4.60;;
6850;SDS011;3464;42.728;23.296;2023-09-19T06:18:34;13.57;;;5.27;;
6850;SDS011;3464;42.728;23.296;2023-09-19T06:21:01;13.57;;;4.57;;
6850;SDS011;3464;42.728;23.296;2023-09-19T06:23:27;18.17;;;5.43;;
6850;SDS011;3464;42.728;23.296;2023-09-19T06:25:54;11.50;;;4.33;;
6850;SDS011;3464;42.728;23.296;2023-09-19T06:28:20;13.73;;;5.20;;
6850;SDS011;3464;42.728;23.296;2023-09-19T06:30:47;14.50;;;5.00;;
6850;SDS011;3464;42.728;23.296;2023-09-19T06:33:13;13.27;;;4.70;;
6850;SDS011;3464;42.728;23.296;2023-09-19T06:35:40;12.47;;;4.03;;
6850;SDS011;3464;42.728;23.296;2023-09-19T06:38:07;13.80;;;4.67;;
6850;SDS011;3464;42.728;23.296;2023-09-19T06:40:33;16.13;;;4.90;;
6850;SDS011;3464;42.728;23.296;2023-09-19T06:43:00;13.57;;;4.87;;
6850;SDS011;3464;42.728;23.296;2023-09-19T06:45:28;14.10;;;5.30;;
6850;SDS011;3464;42.728;23.296;2023-09-19T06:47:55;15.07;;;5.20;;
6850;SDS011;3464;42.728;23.296;2023-09-19T06:50:22;14.67;;;4.57;;
6850;SDS011;3464;42.728;23.296;2023-09-19T06:53:00;16.30;;;5.00;;
6850;SDS011;3464;42.728;23.296;2023-09-19T06:55:28;15.50;;;4.47;;
6850;SDS011;3464;42.728;23.296;2023-09-19T07:01:11;12.90;;;4.90;;
6850;SDS011;3464;42.728;23.296;2023-09-19T07:03:39;13.60;;;4.50;;
6850;SDS011;3464;42.728;23.296;2023-09-19T07:06:06;14.60;;;4.63;;
6850;SDS011;3464;42.728;23.296;2023-09-19T07:08:34;15.67;;;4.83;;
6850;SDS011;3464;42.728;23.296;2023-09-19T07:11:05;12.40;;;4.70;;
6850;SDS011;3464;42.728;23.296;2023-09-19T07:13:32;22.13;;;6.33;;
6850;SDS011;3464;42.728;23.296;2023-09-19T07:15:58;13.53;;;5.30;;
6850;SDS011;3464;42.728;23.296;2023-09-19T07:18:26;15.80;;;5.00;;
6850;SDS011;3464;42.728;23.296;2023-09-19T07:20:56;22.27;;;5.43;;
6850;SDS011;3464;42.728;23.296;2023-09-19T07:23:20;20.73;;;4.90;;
6850;SDS011;3464;42.728;23.296;2023-09-19T07:25:46;14.60;;;4.97;;
6850;SDS011;3464;42.728;23.296;2023-09-19T07:28:13;19.40;;;5.17;;
6850;SDS011;3464;42.728;23.296;2023-09-19T07:30:39;12.73;;;4.37;;
6850;SDS011;3464;42.728;23.296;2023-09-19T07:33:06;17.50;;;5.20;;
6850;SDS011;3464;42.728;23.296;2023-09-19T07:35:33;14.73;;;4.63;;
6850;SDS011;3464;42.728;23.296;2023-09-19T07:37:59;16.67;;;4.83;;
6850;SDS011;3464;42.728;23.296;2023-09-19T07:40:27;14.80;;;4.50;;
6850;SDS011;3464;42.728;23.296;2023-09-19T07:42:55;18.93;;;4.97;;
6850;SDS011;3464;42.728;23.296;2023-09-19T07:45:26;15.03;;;4.87;;
6850;SDS011;3464;42.728;23.296;2023-09-19T07:48:09;18.30;;;4.73;;
6850;SDS011;3464;42.728;23.296;2023-09-19T07:50:40;13.10;;;4.50;;
6850;SDS011;3464;42.728;23.296;2023-09-19T07:53:23;26.03;;;5.20;;
6850;SDS011;3464;42.728;23.296;2023-09-19T07:56:02;18.67;;;4.50;;
6850;SDS011;3464;42.728;23.296;2023-09-19T07:58:32;16.00;;;4.40;;
6850;SDS011;3464;42.728;23.296;2023-09-19T08:01:03;12.87;;;4.90;;
6850;SDS011;3464;42.728;23.296;2023-09-19T08:03:30;15.73;;;4.90;;
6850;SDS011;3464;42.728;23.296;2023-09-19T08:05:57;12.70;;;4.37;;
6850;SDS011;3464;42.728;23.296;2023-09-19T08:08:23;14.53;;;4.63;;
6850;SDS011;3464;42.728;23.296;2023-09-19T08:10:52;16.57;;;5.40;;
6850;SDS011;3464;42.728;23.296;2023-09-19T08:13:18;13.50;;;5.13;;
6850;SDS011;3464;42.728;23.296;2023-09-19T08:15:45;13.97;;;4.63;;
6850;SDS011;3464;42.728;23.296;2023-09-19T08:18:11;14.50;;;4.80;;
6850;SDS011;3464;42.728;23.296;2023-09-19T08:20:38;21.13;;;4.73;;
6850;SDS011;3464;42.728;23.296;2023-09-19T08:23:05;23.63;;;5.60;;
6850;SDS011;3464;42.728;23.296;2023-09-19T08:25:31;12.87;;;4.70;;
6850;SDS011;3464;42.728;23.296;2023-09-19T08:27:58;18.97;;;5.50;;
6850;SDS011;3464;42.728;23.296;2023-09-19T08:30:24;18.43;;;4.90;;
6850;SDS011;3464;42.728;23.296;2023-09-19T08:32:56;14.90;;;5.20;;
6850;SDS011;3464;42.728;23.296;2023-09-19T08:35:27;17.33;;;5.30;;
6850;SDS011;3464;42.728;23.296;2023-09-19T08:37:53;17.27;;;5.50;;
6850;SDS011;3464;42.728;23.296;2023-09-19T08:40:20;12.77;;;4.80;;
6850;SDS011;3464;42.728;23.296;2023-09-19T08:42:49;12.60;;;4.60;;
6850;SDS011;3464;42.728;23.296;2023-09-19T08:45:16;14.40;;;5.43;;
6850;SDS011;3464;42.728;23.296;2023-09-19T08:47:45;20.30;;;5.20;;
6850;SDS011;3464;42.728;23.296;2023-09-19T08:50:15;13.20;;;4.87;;
6850;SDS011;3464;42.728;23.296;2023-09-19T08:52:42;17.40;;;5.60;;
6850;SDS011;3464;42.728;23.296;2023-09-19T08:55:10;15.10;;;4.90;;
6850;SDS011;3464;42.728;23.296;2023-09-19T08:57:35;15.43;;;5.50;;
6850;SDS011;3464;42.728;23.296;2023-09-19T09:00:02;11.60;;;4.93;;
6850;SDS011;3464;42.728;23.296;2023-09-19T09:02:28;14.80;;;5.70;;
6850;SDS011;3464;42.728;23.296;2023-09-19T09:04:54;11.90;;;5.20;;
6850;SDS011;3464;42.728;23.296;2023-09-19T09:07:25;17.53;;;5.00;;
6850;SDS011;3464;42.728;23.296;2023-09-19T09:09:53;16.20;;;5.47;;
6850;SDS011;3464;42.728;23.296;2023-09-19T09:12:20;15.70;;;5.03;;
6850;SDS011;3464;42.728;23.296;2023-09-19T09:14:49;15.90;;;5.53;;
6850;SDS011;3464;42.728;23.296;2023-09-19T09:17:16;15.13;;;4.90;;
6850;SDS011;3464;42.728;23.296;2023-09-19T09:19:43;14.17;;;4.83;;
6850;SDS011;3464;42.728;23.296;2023-09-19T09:22:10;18.93;;;5.00;;
6850;SDS011;3464;42.728;23.296;2023-09-19T09:24:37;14.10;;;4.70;;
6850;SDS011;3464;42.728;23.296;2023-09-19T09:27:04;12.10;;;4.73;;
6850;SDS011;3464;42.728;23.296;2023-09-19T09:29:46;18.13;;;5.10;;
6850;SDS011;3464;42.728;23.296;2023-09-19T09:32:18;14.20;;;5.70;;
6850;SDS011;3464;42.728;23.296;2023-09-19T09:34:53;14.40;;;4.67;;
6850;SDS011;3464;42.728;23.296;2023-09-19T09:37:19;18.50;;;5.30;;
6850;SDS011;3464;42.728;23.296;2023-09-19T09:39:49;13.47;;;4.90;;
6850;SDS011;3464;42.728;23.296;2023-09-19T09:42:28;15.53;;;4.93;;
6850;SDS011;3464;42.728;23.296;2023-09-19T09:44:41;14.27;;;4.63;;
6850;SDS011;3464;42.728;23.296;2023-09-19T09:47:08;13.90;;;5.17;;
6850;SDS011;3464;42.728;23.296;2023-09-19T09:49:40;12.63;;;5.53;;
6850;SDS011;3464;42.728;23.296;2023-09-19T09:52:07;15.30;;;5.20;;
6850;SDS011;3464;42.728;23.296;2023-09-19T09:54:34;19.83;;;4.73;;
6850;SDS011;3464;42.728;23.296;2023-09-19T09:57:04;14.17;;;4.80;;
6850;SDS011;3464;42.728;23.296;2023-09-19T10:02:09;13.13;;;5.13;;
6850;SDS011;3464;42.728;23.296;2023-09-19T10:04:36;16.07;;;4.60;;
6850;SDS011;3464;42.728;23.296;2023-09-19T10:07:02;15.27;;;5.60;;
6850;SDS011;3464;42.728;23.296;2023-09-19T10:09:44;15.33;;;4.50;;
6850;SDS011;3464;42.728;23.296;2023-09-19T10:12:06;13.27;;;4.53;;
6850;SDS011;3464;42.728;23.296;2023-09-19T10:14:35;18.00;;;4.50;;
6850;SDS011;3464;42.728;23.296;2023-09-19T10:17:03;15.03;;;5.17;;
6850;SDS011;3464;42.728;23.296;2023-09-19T10:19:30;23.97;;;5.60;;
6850;SDS011;3464;42.728;23.296;2023-09-19T10:21:56;14.70;;;4.73;;
6850;SDS011;3464;42.728;23.296;2023-09-19T10:24:22;19.13;;;5.50;;
6850;SDS011;3464;42.728;23.296;2023-09-19T10:26:49;15.20;;;4.57;;
6850;SDS011;3464;42.728;23.296;2023-09-19T10:29:16;14.10;;;4.70;;
6850;SDS011;3464;42.728;23.296;2023-09-19T10:31:42;12.77;;;4.50;;
6850;SDS011;3464;42.728;23.296;2023-09-19T10:34:10;17.30;;;5.03;;
6850;SDS011;3464;42.728;23.296;2023-09-19T10:36:37;15.53;;;4.93;;
6850;SDS011;3464;42.728;23.296;2023-09-19T10:39:07;15.00;;;4.47;;
6850;SDS011;3464;42.728;23.296;2023-09-19T10:41:34;16.70;;;4.50;;
6850;SDS011;3464;42.728;23.296;2023-09-19T10:44:03;15.43;;;4.90;;
6850;SDS011;3464;42.728;23.296;2023-09-19T10:46:31;15.30;;;5.07;;
6850;SDS011;3464;42.728;23.296;2023-09-19T10:48:59;20.13;;;5.30;;
6850;SDS011;3464;42.728;23.296;2023-09-19T10:51:27;12.73;;;4.70;;
6850;SDS011;3464;42.728;23.296;2023-09-19T10:54:02;15.37;;;5.70;;
6850;SDS011;3464;42.728;23.296;2023-09-19T10:56:31;17.80;;;4.97;;
6850;SDS011;3464;42.728;23.296;2023-09-19T11:04:21;18.80;;;5.47;;
6850;SDS011;3464;42.728;23.296;2023-09-19T11:12:08;20.63;;;5.47;;
6850;SDS011;3464;42.728;23.296;2023-09-19T11:14:37;15.07;;;4.90;;
6850;SDS011;3464;42.728;23.296;2023-09-19T11:17:37;23.00;;;5.00;;
6850;SDS011;3464;42.728;23.296;2023-09-19T11:25:45;18.73;;;4.80;;
6850;SDS011;3464;42.728;23.296;2023-09-19T11:28:28;14.40;;;4.10;;
6850;SDS011;3464;42.728;23.296;2023-09-19T11:30:55;19.17;;;5.87;;
6850;SDS011;3464;42.728;23.296;2023-09-19T11:33:23;18.10;;;5.20;;
6850;SDS011;3464;42.728;23.296;2023-09-19T11:44:34;15.10;;;5.20;;
6850;SDS011;3464;42.728;23.296;2023-09-19T11:47:00;18.10;;;5.53;;
6850;SDS011;3464;42.728;23.296;2023-09-19T11:49:30;15.60;;;5.37;;
6850;SDS011;3464;42.728;23.296;2023-09-19T11:52:00;17.90;;;6.53;;
6850;SDS011;3464;42.728;23.296;2023-09-19T11:54:28;24.10;;;5.63;;
6850;SDS011;3464;42.728;23.296;2023-09-19T11:59:39;15.60;;;5.47;;
6850;SDS011;3464;42.728;23.296;2023-09-19T12:02:09;13.43;;;5.07;;
6850;SDS011;3464;42.728;23.296;2023-09-19T12:04:37;14.37;;;5.10;;
6850;SDS011;3464;42.728;23.296;2023-09-19T12:07:05;13.73;;;5.03;;
6850;SDS011;3464;42.728;23.296;2023-09-19T12:09:31;17.13;;;5.30;;
6850;SDS011;3464;42.728;23.296;2023-09-19T12:11:58;15.27;;;5.53;;
6850;SDS011;3464;42.728;23.296;2023-09-19T12:14:25;13.50;;;5.70;;
6850;SDS011;3464;42.728;23.296;2023-09-19T12:16:53;14.33;;;5.90;;
6850;SDS011;3464;42.728;23.296;2023-09-19T12:19:20;15.20;;;5.80;;
6850;SDS011;3464;42.728;23.296;2023-09-19T12:21:53;17.13;;;5.80;;
6850;SDS011;3464;42.728;23.296;2023-09-19T12:24:19;12.90;;;5.47;;
6850;SDS011;3464;42.728;23.296;2023-09-19T12:26:46;17.23;;;6.17;;
6850;SDS011;3464;42.728;23.296;2023-09-19T12:29:14;15.17;;;5.43;;
6850;SDS011;3464;42.728;23.296;2023-09-19T12:34:15;20.20;;;5.50;;
6850;SDS011;3464;42.728;23.296;2023-09-19T12:36:40;15.00;;;5.87;;
6850;SDS011;3464;42.728;23.296;2023-09-19T12:39:07;15.00;;;5.93;;
6850;SDS011;3464;42.728;23.296;2023-09-19T12:41:33;12.80;;;5.73;;
6850;SDS011;3464;42.728;23.296;2023-09-19T12:44:00;19.83;;;6.37;;
6850;SDS011;3464;42.728;23.296;2023-09-19T12:46:27;17.67;;;6.30;;
6850;SDS011;3464;42.728;23.296;2023-09-19T12:51:35;22.83;;;5.70;;
6850;SDS011;3464;42.728;23.296;2023-09-19T12:54:01;15.37;;;6.10;;
6850;SDS011;3464;42.728;23.296;2023-09-19T12:56:27;17.07;;;6.50;;
6850;SDS011;3464;42.728;23.296;2023-09-19T12:58:58;16.70;;;6.20;;
6850;SDS011;3464;42.728;23.296;2023-09-19T13:01:35;14.90;;;6.03;;
6850;SDS011;3464;42.728;23.296;2023-09-19T13:06:40;13.40;;;6.27;;
6850;SDS011;3464;42.728;23.296;2023-09-19T13:09:16;21.37;;;6.13;;
6850;SDS011;3464;42.728;23.296;2023-09-19T13:11:44;15.77;;;6.13;;
6850;SDS011;3464;42.728;23.296;2023-09-19T13:14:17;15.20;;;6.07;;
6850;SDS011;3464;42.728;23.296;2023-09-19T13:24:55;15.37;;;6.00;;
6850;SDS011;3464;42.728;23.296;2023-09-19T13:27:22;16.33;;;5.80;;
6850;SDS011;3464;42.728;23.296;2023-09-19T13:29:48;15.67;;;5.60;;
6850;SDS011;3464;42.728;23.296;2023-09-19T13:32:17;18.50;;;6.10;;
6850;SDS011;3464;42.728;23.296;2023-09-19T13:34:44;15.97;;;6.77;;
6850;SDS011;3464;42.728;23.296;2023-09-19T13:37:10;14.83;;;6.13;;
6850;SDS011;3464;42.728;23.296;2023-09-19T13:39:40;14.60;;;6.43;;
6850;SDS011;3464;42.728;23.296;2023-09-19T13:42:08;19.00;;;5.90;;
6850;SDS011;3464;42.728;23.296;2023-09-19T13:44:39;20.97;;;6.63;;
6850;SDS011;3464;42.728;23.296;2023-09-19T13:47:07;14.53;;;6.10;;
6850;SDS011;3464;42.728;23.296;2023-09-19T13:49:39;15.10;;;6.80;;
6850;SDS011;3464;42.728;23.296;2023-09-19T13:52:07;16.40;;;6.47;;
6850;SDS011;3464;42.728;23.296;2023-09-19T13:54:34;30.23;;;6.60;;
6850;SDS011;3464;42.728;23.296;2023-09-19T13:59:59;15.67;;;6.50;;
6850;SDS011;3464;42.728;23.296;2023-09-19T14:02:26;14.37;;;6.00;;
6850;SDS011;3464;42.728;23.296;2023-09-19T14:04:53;18.83;;;6.60;;
6850;SDS011;3464;42.728;23.296;2023-09-19T14:07:20;15.90;;;6.50;;
6850;SDS011;3464;42.728;23.296;2023-09-19T14:09:48;20.83;;;7.23;;
6850;SDS011;3464;42.728;23.296;2023-09-19T14:12:20;18.40;;;6.00;;
6850;SDS011;3464;42.728;23.296;2023-09-19T14:14:46;15.23;;;6.00;;
6850;SDS011;3464;42.728;23.296;2023-09-19T14:17:13;14.20;;;6.10;;
6850;SDS011;3464;42.728;23.296;2023-09-19T14:19:40;14.30;;;6.17;;
6850;SDS011;3464;42.728;23.296;2023-09-19T14:22:07;16.10;;;6.10;;
6850;SDS011;3464;42.728;23.296;2023-09-19T14:24:34;16.73;;;5.77;;
6850;SDS011;3464;42.728;23.296;2023-09-19T14:27:02;13.80;;;5.70;;
6850;SDS011;3464;42.728;23.296;2023-09-19T14:29:30;13.90;;;6.00;;
6850;SDS011;3464;42.728;23.296;2023-09-19T14:31:59;16.47;;;6.40;;
6850;SDS011;3464;42.728;23.296;2023-09-19T14:34:28;15.00;;;6.20;;
6850;SDS011;3464;42.728;23.296;2023-09-19T14:39:35;18.23;;;6.47;;
6850;SDS011;3464;42.728;23.296;2023-09-19T14:42:04;16.37;;;5.93;;
6850;SDS011;3464;42.728;23.296;2023-09-19T14:44:31;21.40;;;6.90;;
6850;SDS011;3464;42.728;23.296;2023-09-19T14:47:00;16.10;;;6.83;;
6850;SDS011;3464;42.728;23.296;2023-09-19T14:49:26;14.53;;;6.67;;
6850;SDS011;3464;42.728;23.296;2023-09-19T14:51:54;14.03;;;6.50;;
6850;SDS011;3464;42.728;23.296;2023-09-19T14:54:20;16.50;;;6.50;;
6850;SDS011;3464;42.728;23.296;2023-09-19T14:56:47;14.40;;;6.63;;
6850;SDS011;3464;42.728;23.296;2023-09-19T14:59:14;15.40;;;6.10;;
6850;SDS011;3464;42.728;23.296;2023-09-19T15:01:40;15.60;;;6.70;;
6850;SDS011;3464;42.728;23.296;2023-09-19T15:04:07;18.03;;;6.80;;
6850;SDS011;3464;42.728;23.296;2023-09-19T15:06:35;21.10;;;6.73;;
6850;SDS011;3464;42.728;23.296;2023-09-19T15:09:01;17.40;;;5.93;;
6850;SDS011;3464;42.728;23.296;2023-09-19T15:11:28;18.80;;;7.03;;
6850;SDS011;3464;42.728;23.296;2023-09-19T15:13:55;18.70;;;6.30;;
6850;SDS011;3464;42.728;23.296;2023-09-19T15:16:26;17.60;;;6.67;;
6850;SDS011;3464;42.728;23.296;2023-09-19T15:18:53;20.37;;;7.33;;
6850;SDS011;3464;42.728;23.296;2023-09-19T15:21:20;21.53;;;7.30;;
6850;SDS011;3464;42.728;23.296;2023-09-19T15:23:46;20.73;;;7.37;;
6850;SDS011;3464;42.728;23.296;2023-09-19T15:26:13;16.00;;;6.47;;
6850;SDS011;3464;42.728;23.296;2023-09-19T15:28:39;17.20;;;7.20;;
6850;SDS011;3464;42.728;23.296;2023-09-19T15:31:07;15.30;;;7.43;;
6850;SDS011;3464;42.728;23.296;2023-09-19T15:33:34;16.17;;;7.60;;
6850;SDS011;3464;42.728;23.296;2023-09-19T15:36:02;19.80;;;7.27;;
6850;SDS011;3464;42.728;23.296;2023-09-19T15:38:27;21.13;;;7.20;;
6850;SDS011;3464;42.728;23.296;2023-09-19T15:40:54;18.50;;;6.90;;
6850;SDS011;3464;42.728;23.296;2023-09-19T15:43:21;19.17;;;6.90;;
6850;SDS011;3464;42.728;23.296;2023-09-19T15:45:49;14.60;;;6.43;;
6850;SDS011;3464;42.728;23.296;2023-09-19T15:48:14;17.87;;;7.10;;
6850;SDS011;3464;42.728;23.296;2023-09-19T15:50:40;21.40;;;6.53;;
6850;SDS011;3464;42.728;23.296;2023-09-19T15:53:07;21.47;;;6.77;;
6850;SDS011;3464;42.728;23.296;2023-09-19T15:55:38;18.03;;;7.03;;
6850;SDS011;3464;42.728;23.296;2023-09-19T15:58:04;18.77;;;6.60;;
6850;SDS011;3464;42.728;23.296;2023-09-19T16:00:32;16.00;;;7.47;;